sensor_id;sensor_type;location;lat;lon;timestamp;P1;durP1;ratioP1;P2;durP2;ratioP2
61709;SDS011;47633;51.494;5.386;2022-12-18T00:01:00;14.07;;;9.65;;
61709;SDS011;47633;51.494;5.386;2022-12-18T00:03:31;16.88;;;10.05;;
61709;SDS011;47633;51.494;5.386;2022-12-18T00:05:58;13.98;;;9.50;;
61709;SDS011;47633;51.494;5.386;2022-12-18T00:08:23;13.27;;;8.82;;
61709;SDS011;47633;51.494;5.386;2022-12-18T00:10:48;13.38;;;9.80;;
61709;SDS011;47633;51.494;5.386;2022-12-18T00:13:14;14.55;;;10.13;;
61709;SDS011;47633;51.494;5.386;2022-12-18T00:15:39;15.45;;;10.15;;
61709;SDS011;47633;51.494;5.386;2022-12-18T00:18:04;12.32;;;8.93;;
61709;SDS011;47633;51.494;5.386;2022-12-18T00:20:31;13.60;;;9.32;;
61709;SDS011;47633;51.494;5.386;2022-12-18T00:23:00;15.23;;;10.27;;
61709;SDS011;47633;51.494;5.386;2022-12-18T00:25:25;15.13;;;9.73;;
61709;SDS011;47633;51.494;5.386;2022-12-18T00:27:50;14.45;;;9.63;;
61709;SDS011;47633;51.494;5.386;2022-12-18T00:30:16;14.27;;;9.25;;
61709;SDS011;47633;51.494;5.386;2022-12-18T00:32:41;13.80;;;9.50;;
61709;SDS011;47633;51.494;5.386;2022-12-18T00:35:06;13.93;;;9.35;;
61709;SDS011;47633;51.494;5.386;2022-12-18T00:37:35;14.80;;;9.90;;
61709;SDS011;47633;51.494;5.386;2022-12-18T00:40:00;15.30;;;8.98;;
61709;SDS011;47633;51.494;5.386;2022-12-18T00:42:26;14.43;;;9.55;;
61709;SDS011;47633;51.494;5.386;2022-12-18T00:45:10;15.18;;;9.55;;
61709;SDS011;47633;51.494;5.386;2022-12-18T00:47:35;14.85;;;9.63;;
61709;SDS011;47633;51.494;5.386;2022-12-18T00:50:00;12.77;;;9.57;;
61709;SDS011;47633;51.494;5.386;2022-12-18T00:52:25;14.82;;;9.65;;
61709;SDS011;47633;51.494;5.386;2022-12-18T00:54:51;15.57;;;9.02;;
61709;SDS011;47633;51.494;5.386;2022-12-18T00:57:16;15.03;;;9.50;;
61709;SDS011;47633;51.494;5.386;2022-12-18T00:59:41;14.07;;;9.52;;
61709;SDS011;47633;51.494;5.386;2022-12-18T01:02:06;12.77;;;9.25;;
61709;SDS011;47633;51.494;5.386;2022-12-18T01:04:32;13.00;;;8.52;;
61709;SDS011;47633;51.494;5.386;2022-12-18T01:06:58;12.25;;;8.93;;
61709;SDS011;47633;51.494;5.386;2022-12-18T01:09:23;14.43;;;9.50;;
61709;SDS011;47633;51.494;5.386;2022-12-18T01:11:48;15.93;;;9.40;;
61709;SDS011;47633;51.494;5.386;2022-12-18T01:14:14;14.98;;;9.73;;
61709;SDS011;47633;51.494;5.386;2022-12-18T01:16:39;13.02;;;9.20;;
61709;SDS011;47633;51.494;5.386;2022-12-18T01:19:05;14.75;;;9.63;;
61709;SDS011;47633;51.494;5.386;2022-12-18T01:21:30;14.43;;;9.32;;
61709;SDS011;47633;51.494;5.386;2022-12-18T01:23:56;14.25;;;8.82;;
61709;SDS011;47633;51.494;5.386;2022-12-18T01:26:22;14.32;;;9.05;;
61709;SDS011;47633;51.494;5.386;2022-12-18T01:28:48;15.65;;;9.77;;
61709;SDS011;47633;51.494;5.386;2022-12-18T01:31:18;13.63;;;9.48;;
61709;SDS011;47633;51.494;5.386;2022-12-18T01:33:44;15.50;;;9.23;;
61709;SDS011;47633;51.494;5.386;2022-12-18T01:39:10;14.02;;;9.20;;
61709;SDS011;47633;51.494;5.386;2022-12-18T01:41:37;13.68;;;8.88;;
61709;SDS011;47633;51.494;5.386;2022-12-18T01:47:06;12.50;;;8.60;;
61709;SDS011;47633;51.494;5.386;2022-12-18T01:49:31;13.68;;;9.00;;
61709;SDS011;47633;51.494;5.386;2022-12-18T01:51:56;14.30;;;9.07;;
61709;SDS011;47633;51.494;5.386;2022-12-18T01:54:21;13.63;;;8.68;;
61709;SDS011;47633;51.494;5.386;2022-12-18T01:56:47;13.02;;;9.50;;
61709;SDS011;47633;51.494;5.386;2022-12-18T01:59:12;14.90;;;8.88;;
61709;SDS011;47633;51.494;5.386;2022-12-18T02:01:38;16.77;;;9.10;;
61709;SDS011;47633;51.494;5.386;2022-12-18T02:09:20;15.38;;;9.05;;
61709;SDS011;47633;51.494;5.386;2022-12-18T02:17:42;12.00;;;8.75;;
61709;SDS011;47633;51.494;5.386;2022-12-18T02:22:51;14.43;;;8.85;;
61709;SDS011;47633;51.494;5.386;2022-12-18T02:25:40;11.02;;;8.55;;
61709;SDS011;47633;51.494;5.386;2022-12-18T02:28:27;12.98;;;8.38;;
61709;SDS011;47633;51.494;5.386;2022-12-18T02:30:56;12.15;;;8.48;;
61709;SDS011;47633;51.494;5.386;2022-12-18T02:33:26;13.48;;;8.90;;
61709;SDS011;47633;51.494;5.386;2022-12-18T02:35:54;13.43;;;8.80;;
61709;SDS011;47633;51.494;5.386;2022-12-18T02:38:22;14.60;;;8.93;;
61709;SDS011;47633;51.494;5.386;2022-12-18T02:40:49;14.60;;;8.95;;
61709;SDS011;47633;51.494;5.386;2022-12-18T02:43:18;13.98;;;8.63;;
61709;SDS011;47633;51.494;5.386;2022-12-18T02:45:50;13.18;;;8.18;;
61709;SDS011;47633;51.494;5.386;2022-12-18T02:48:21;13.07;;;8.63;;
61709;SDS011;47633;51.494;5.386;2022-12-18T02:51:01;16.23;;;8.73;;
61709;SDS011;47633;51.494;5.386;2022-12-18T02:53:35;14.15;;;8.27;;
61709;SDS011;47633;51.494;5.386;2022-12-18T02:56:21;14.80;;;8.80;;
61709;SDS011;47633;51.494;5.386;2022-12-18T03:02:24;11.27;;;7.72;;
61709;SDS011;47633;51.494;5.386;2022-12-18T03:04:59;13.25;;;8.43;;
61709;SDS011;47633;51.494;5.386;2022-12-18T03:07:37;12.70;;;8.18;;
61709;SDS011;47633;51.494;5.386;2022-12-18T03:10:06;11.88;;;7.70;;
61709;SDS011;47633;51.494;5.386;2022-12-18T03:12:37;12.55;;;7.80;;
61709;SDS011;47633;51.494;5.386;2022-12-18T03:15:10;11.77;;;7.38;;
61709;SDS011;47633;51.494;5.386;2022-12-18T03:17:40;12.13;;;7.05;;
61709;SDS011;47633;51.494;5.386;2022-12-18T03:20:13;10.25;;;7.43;;
61709;SDS011;47633;51.494;5.386;2022-12-18T03:22:42;11.82;;;7.03;;
61709;SDS011;47633;51.494;5.386;2022-12-18T03:25:12;12.75;;;7.15;;
61709;SDS011;47633;51.494;5.386;2022-12-18T03:27:41;12.25;;;7.00;;
61709;SDS011;47633;51.494;5.386;2022-12-18T03:30:13;11.02;;;6.90;;
61709;SDS011;47633;51.494;5.386;2022-12-18T03:32:41;11.68;;;7.13;;
61709;SDS011;47633;51.494;5.386;2022-12-18T03:35:11;12.80;;;7.15;;
61709;SDS011;47633;51.494;5.386;2022-12-18T03:37:43;9.90;;;6.50;;
61709;SDS011;47633;51.494;5.386;2022-12-18T03:40:08;11.73;;;6.63;;
61709;SDS011;47633;51.494;5.386;2022-12-18T03:50:33;10.73;;;6.78;;
61709;SDS011;47633;51.494;5.386;2022-12-18T03:55:57;10.25;;;6.68;;
61709;SDS011;47633;51.494;5.386;2022-12-18T03:58:25;11.10;;;6.15;;
61709;SDS011;47633;51.494;5.386;2022-12-18T04:00:55;10.23;;;6.10;;
61709;SDS011;47633;51.494;5.386;2022-12-18T04:03:23;10.52;;;6.43;;
61709;SDS011;47633;51.494;5.386;2022-12-18T04:05:49;9.38;;;5.97;;
61709;SDS011;47633;51.494;5.386;2022-12-18T04:08:16;10.15;;;6.22;;
61709;SDS011;47633;51.494;5.386;2022-12-18T04:10:42;8.48;;;6.32;;
61709;SDS011;47633;51.494;5.386;2022-12-18T04:13:08;11.55;;;6.38;;
61709;SDS011;47633;51.494;5.386;2022-12-18T04:15:34;10.40;;;6.05;;
61709;SDS011;47633;51.494;5.386;2022-12-18T04:18:01;11.55;;;6.35;;
61709;SDS011;47633;51.494;5.386;2022-12-18T04:20:27;9.60;;;6.53;;
61709;SDS011;47633;51.494;5.386;2022-12-18T04:22:52;10.10;;;6.18;;
61709;SDS011;47633;51.494;5.386;2022-12-18T04:25:18;10.63;;;6.53;;
61709;SDS011;47633;51.494;5.386;2022-12-18T04:27:43;9.55;;;6.50;;
61709;SDS011;47633;51.494;5.386;2022-12-18T04:30:08;11.77;;;6.15;;
61709;SDS011;47633;51.494;5.386;2022-12-18T04:32:34;11.43;;;6.45;;
61709;SDS011;47633;51.494;5.386;2022-12-18T04:35:00;10.77;;;5.95;;
61709;SDS011;47633;51.494;5.386;2022-12-18T04:37:25;9.43;;;6.15;;
61709;SDS011;47633;51.494;5.386;2022-12-18T04:39:50;9.38;;;6.30;;
61709;SDS011;47633;51.494;5.386;2022-12-18T04:42:16;10.63;;;6.35;;
61709;SDS011;47633;51.494;5.386;2022-12-18T04:44:41;9.45;;;6.25;;
61709;SDS011;47633;51.494;5.386;2022-12-18T04:47:06;10.52;;;6.50;;
61709;SDS011;47633;51.494;5.386;2022-12-18T04:49:32;9.70;;;5.90;;
61709;SDS011;47633;51.494;5.386;2022-12-18T04:51:57;12.82;;;6.63;;
61709;SDS011;47633;51.494;5.386;2022-12-18T04:54:23;11.50;;;6.93;;
61709;SDS011;47633;51.494;5.386;2022-12-18T04:56:48;10.90;;;6.40;;
61709;SDS011;47633;51.494;5.386;2022-12-18T04:59:13;8.70;;;5.82;;
61709;SDS011;47633;51.494;5.386;2022-12-18T05:01:39;11.40;;;6.55;;
61709;SDS011;47633;51.494;5.386;2022-12-18T05:04:04;11.23;;;6.53;;
61709;SDS011;47633;51.494;5.386;2022-12-18T05:06:30;9.75;;;5.97;;
61709;SDS011;47633;51.494;5.386;2022-12-18T05:08:55;8.25;;;5.72;;
61709;SDS011;47633;51.494;5.386;2022-12-18T05:11:20;9.00;;;5.68;;
61709;SDS011;47633;51.494;5.386;2022-12-18T05:13:46;9.75;;;6.00;;
61709;SDS011;47633;51.494;5.386;2022-12-18T05:16:12;8.82;;;5.78;;
61709;SDS011;47633;51.494;5.386;2022-12-18T05:18:38;11.10;;;5.95;;
61709;SDS011;47633;51.494;5.386;2022-12-18T05:21:03;9.15;;;5.97;;
61709;SDS011;47633;51.494;5.386;2022-12-18T05:23:29;9.77;;;5.90;;
61709;SDS011;47633;51.494;5.386;2022-12-18T05:25:59;9.63;;;6.13;;
61709;SDS011;47633;51.494;5.386;2022-12-18T05:28:26;9.23;;;5.45;;
61709;SDS011;47633;51.494;5.386;2022-12-18T05:30:54;10.98;;;5.60;;
61709;SDS011;47633;51.494;5.386;2022-12-18T05:33:21;7.90;;;5.60;;
61709;SDS011;47633;51.494;5.386;2022-12-18T05:35:51;8.80;;;6.70;;
61709;SDS011;47633;51.494;5.386;2022-12-18T05:38:18;10.00;;;6.00;;
61709;SDS011;47633;51.494;5.386;2022-12-18T05:40:44;8.82;;;5.47;;
61709;SDS011;47633;51.494;5.386;2022-12-18T05:43:09;8.38;;;4.90;;
61709;SDS011;47633;51.494;5.386;2022-12-18T05:45:38;8.20;;;4.57;;
61709;SDS011;47633;51.494;5.386;2022-12-18T05:48:04;8.70;;;4.90;;
61709;SDS011;47633;51.494;5.386;2022-12-18T05:50:30;7.78;;;4.57;;
61709;SDS011;47633;51.494;5.386;2022-12-18T05:52:55;7.35;;;4.30;;
61709;SDS011;47633;51.494;5.386;2022-12-18T05:55:20;9.93;;;5.47;;
61709;SDS011;47633;51.494;5.386;2022-12-18T05:57:45;8.40;;;4.80;;
61709;SDS011;47633;51.494;5.386;2022-12-18T06:00:11;8.98;;;4.53;;
61709;SDS011;47633;51.494;5.386;2022-12-18T06:02:37;10.70;;;5.05;;
61709;SDS011;47633;51.494;5.386;2022-12-18T06:05:02;7.85;;;4.70;;
61709;SDS011;47633;51.494;5.386;2022-12-18T06:07:27;8.27;;;4.22;;
61709;SDS011;47633;51.494;5.386;2022-12-18T06:09:53;9.27;;;4.32;;
61709;SDS011;47633;51.494;5.386;2022-12-18T06:12:18;7.28;;;3.92;;
61709;SDS011;47633;51.494;5.386;2022-12-18T06:14:43;7.30;;;4.20;;
61709;SDS011;47633;51.494;5.386;2022-12-18T06:17:08;7.65;;;4.50;;
61709;SDS011;47633;51.494;5.386;2022-12-18T06:19:34;7.38;;;3.95;;
61709;SDS011;47633;51.494;5.386;2022-12-18T06:21:59;6.88;;;3.83;;
61709;SDS011;47633;51.494;5.386;2022-12-18T06:24:24;8.00;;;4.28;;
61709;SDS011;47633;51.494;5.386;2022-12-18T06:26:50;8.85;;;4.07;;
61709;SDS011;47633;51.494;5.386;2022-12-18T06:29:15;8.50;;;4.70;;
61709;SDS011;47633;51.494;5.386;2022-12-18T06:31:40;7.32;;;4.20;;
61709;SDS011;47633;51.494;5.386;2022-12-18T06:34:05;6.68;;;3.95;;
61709;SDS011;47633;51.494;5.386;2022-12-18T06:36:31;8.90;;;4.18;;
61709;SDS011;47633;51.494;5.386;2022-12-18T06:38:57;8.45;;;4.40;;
61709;SDS011;47633;51.494;5.386;2022-12-18T06:41:22;6.10;;;3.97;;
61709;SDS011;47633;51.494;5.386;2022-12-18T06:43:48;7.10;;;4.35;;
61709;SDS011;47633;51.494;5.386;2022-12-18T06:46:13;7.18;;;4.00;;
61709;SDS011;47633;51.494;5.386;2022-12-18T06:48:38;8.10;;;4.38;;
61709;SDS011;47633;51.494;5.386;2022-12-18T06:51:04;7.28;;;5.05;;
61709;SDS011;47633;51.494;5.386;2022-12-18T06:53:30;7.75;;;4.35;;
61709;SDS011;47633;51.494;5.386;2022-12-18T06:56:00;7.30;;;4.82;;
61709;SDS011;47633;51.494;5.386;2022-12-18T06:58:27;6.53;;;4.13;;
61709;SDS011;47633;51.494;5.386;2022-12-18T07:00:52;7.45;;;4.00;;
61709;SDS011;47633;51.494;5.386;2022-12-18T07:03:18;9.43;;;4.47;;
61709;SDS011;47633;51.494;5.386;2022-12-18T07:05:43;7.22;;;4.13;;
61709;SDS011;47633;51.494;5.386;2022-12-18T07:08:08;9.85;;;4.72;;
61709;SDS011;47633;51.494;5.386;2022-12-18T07:10:36;6.30;;;3.95;;
61709;SDS011;47633;51.494;5.386;2022-12-18T07:13:05;7.85;;;4.22;;
61709;SDS011;47633;51.494;5.386;2022-12-18T07:15:31;7.80;;;4.50;;
61709;SDS011;47633;51.494;5.386;2022-12-18T07:17:56;6.78;;;4.20;;
61709;SDS011;47633;51.494;5.386;2022-12-18T07:20:21;8.73;;;4.75;;
61709;SDS011;47633;51.494;5.386;2022-12-18T07:22:46;7.88;;;3.90;;
61709;SDS011;47633;51.494;5.386;2022-12-18T07:25:12;6.10;;;3.63;;
61709;SDS011;47633;51.494;5.386;2022-12-18T07:27:37;7.35;;;4.05;;
61709;SDS011;47633;51.494;5.386;2022-12-18T07:30:02;7.40;;;3.97;;
61709;SDS011;47633;51.494;5.386;2022-12-18T07:32:29;6.50;;;4.20;;
61709;SDS011;47633;51.494;5.386;2022-12-18T07:34:55;7.00;;;4.07;;
61709;SDS011;47633;51.494;5.386;2022-12-18T07:37:20;7.53;;;4.15;;
61709;SDS011;47633;51.494;5.386;2022-12-18T07:39:46;7.43;;;4.78;;
61709;SDS011;47633;51.494;5.386;2022-12-18T07:42:11;5.88;;;3.70;;
61709;SDS011;47633;51.494;5.386;2022-12-18T07:44:55;7.50;;;3.92;;
61709;SDS011;47633;51.494;5.386;2022-12-18T07:47:20;7.20;;;4.30;;
61709;SDS011;47633;51.494;5.386;2022-12-18T07:49:46;7.30;;;3.83;;
61709;SDS011;47633;51.494;5.386;2022-12-18T07:52:11;6.50;;;4.22;;
61709;SDS011;47633;51.494;5.386;2022-12-18T07:54:37;8.30;;;3.88;;
61709;SDS011;47633;51.494;5.386;2022-12-18T07:57:03;6.85;;;4.15;;
61709;SDS011;47633;51.494;5.386;2022-12-18T07:59:28;8.07;;;4.22;;
61709;SDS011;47633;51.494;5.386;2022-12-18T08:01:53;8.27;;;4.00;;
61709;SDS011;47633;51.494;5.386;2022-12-18T08:04:18;6.05;;;3.70;;
61709;SDS011;47633;51.494;5.386;2022-12-18T08:06:44;8.90;;;4.27;;
61709;SDS011;47633;51.494;5.386;2022-12-18T08:09:09;8.15;;;4.38;;
61709;SDS011;47633;51.494;5.386;2022-12-18T08:11:34;6.65;;;3.72;;
61709;SDS011;47633;51.494;5.386;2022-12-18T08:14:00;6.93;;;3.72;;
61709;SDS011;47633;51.494;5.386;2022-12-18T08:16:25;6.93;;;3.60;;
61709;SDS011;47633;51.494;5.386;2022-12-18T08:18:51;7.47;;;3.97;;
61709;SDS011;47633;51.494;5.386;2022-12-18T08:21:18;6.75;;;3.85;;
61709;SDS011;47633;51.494;5.386;2022-12-18T08:23:47;8.23;;;4.03;;
61709;SDS011;47633;51.494;5.386;2022-12-18T08:26:13;5.78;;;3.80;;
61709;SDS011;47633;51.494;5.386;2022-12-18T08:28:39;7.15;;;3.70;;
61709;SDS011;47633;51.494;5.386;2022-12-18T08:31:05;7.20;;;3.70;;
61709;SDS011;47633;51.494;5.386;2022-12-18T08:33:31;7.10;;;3.75;;
61709;SDS011;47633;51.494;5.386;2022-12-18T08:35:57;6.25;;;3.88;;
61709;SDS011;47633;51.494;5.386;2022-12-18T08:38:23;7.95;;;4.80;;
61709;SDS011;47633;51.494;5.386;2022-12-18T08:40:49;9.02;;;4.03;;
61709;SDS011;47633;51.494;5.386;2022-12-18T08:43:14;7.60;;;4.00;;
61709;SDS011;47633;51.494;5.386;2022-12-18T08:45:58;6.93;;;4.13;;
61709;SDS011;47633;51.494;5.386;2022-12-18T08:48:23;7.90;;;4.03;;
61709;SDS011;47633;51.494;5.386;2022-12-18T08:50:55;7.47;;;4.10;;
61709;SDS011;47633;51.494;5.386;2022-12-18T08:53:21;7.45;;;3.85;;
61709;SDS011;47633;51.494;5.386;2022-12-18T08:55:50;9.95;;;3.88;;
61709;SDS011;47633;51.494;5.386;2022-12-18T08:58:16;8.00;;;4.20;;
61709;SDS011;47633;51.494;5.386;2022-12-18T09:00:41;11.27;;;4.80;;
61709;SDS011;47633;51.494;5.386;2022-12-18T09:03:13;7.57;;;3.60;;
61709;SDS011;47633;51.494;5.386;2022-12-18T09:05:42;7.03;;;3.83;;
61709;SDS011;47633;51.494;5.386;2022-12-18T09:08:08;8.38;;;4.13;;
61709;SDS011;47633;51.494;5.386;2022-12-18T09:10:34;8.20;;;3.85;;
61709;SDS011;47633;51.494;5.386;2022-12-18T09:13:05;8.25;;;4.38;;
61709;SDS011;47633;51.494;5.386;2022-12-18T09:15:31;8.40;;;4.28;;
61709;SDS011;47633;51.494;5.386;2022-12-18T09:17:56;7.68;;;4.47;;
61709;SDS011;47633;51.494;5.386;2022-12-18T09:20:21;7.13;;;4.33;;
61709;SDS011;47633;51.494;5.386;2022-12-18T09:22:47;10.93;;;3.92;;
61709;SDS011;47633;51.494;5.386;2022-12-18T09:25:12;9.13;;;4.35;;
61709;SDS011;47633;51.494;5.386;2022-12-18T09:27:37;9.60;;;4.13;;
61709;SDS011;47633;51.494;5.386;2022-12-18T09:30:04;7.35;;;4.10;;
61709;SDS011;47633;51.494;5.386;2022-12-18T09:32:30;11.32;;;4.43;;
61709;SDS011;47633;51.494;5.386;2022-12-18T09:34:55;8.48;;;4.65;;
61709;SDS011;47633;51.494;5.386;2022-12-18T09:37:20;8.67;;;4.33;;
61709;SDS011;47633;51.494;5.386;2022-12-18T09:39:46;9.18;;;4.28;;
61709;SDS011;47633;51.494;5.386;2022-12-18T09:42:17;8.83;;;4.67;;
61709;SDS011;47633;51.494;5.386;2022-12-18T09:44:49;7.65;;;4.32;;
61709;SDS011;47633;51.494;5.386;2022-12-18T09:47:38;9.35;;;4.53;;
61709;SDS011;47633;51.494;5.386;2022-12-18T09:50:05;9.02;;;4.95;;
61709;SDS011;47633;51.494;5.386;2022-12-18T09:52:44;8.95;;;4.80;;
61709;SDS011;47633;51.494;5.386;2022-12-18T09:55:22;8.02;;;4.47;;
61709;SDS011;47633;51.494;5.386;2022-12-18T09:57:53;7.65;;;4.85;;
61709;SDS011;47633;51.494;5.386;2022-12-18T10:00:22;10.32;;;4.43;;
61709;SDS011;47633;51.494;5.386;2022-12-18T10:02:50;7.72;;;4.20;;
61709;SDS011;47633;51.494;5.386;2022-12-18T10:05:25;8.80;;;4.38;;
61709;SDS011;47633;51.494;5.386;2022-12-18T10:08:02;8.30;;;4.50;;
61709;SDS011;47633;51.494;5.386;2022-12-18T10:13:20;12.43;;;4.65;;
61709;SDS011;47633;51.494;5.386;2022-12-18T10:18:49;9.65;;;4.30;;
61709;SDS011;47633;51.494;5.386;2022-12-18T10:21:22;9.30;;;4.88;;
61709;SDS011;47633;51.494;5.386;2022-12-18T10:26:47;9.15;;;4.60;;
61709;SDS011;47633;51.494;5.386;2022-12-18T10:29:13;8.73;;;4.47;;
61709;SDS011;47633;51.494;5.386;2022-12-18T10:31:40;8.10;;;4.18;;
61709;SDS011;47633;51.494;5.386;2022-12-18T10:34:10;7.47;;;4.00;;
61709;SDS011;47633;51.494;5.386;2022-12-18T10:36:36;8.20;;;4.80;;
61709;SDS011;47633;51.494;5.386;2022-12-18T10:39:15;8.18;;;4.30;;
61709;SDS011;47633;51.494;5.386;2022-12-18T10:41:40;9.73;;;5.10;;
61709;SDS011;47633;51.494;5.386;2022-12-18T10:44:10;9.15;;;4.75;;
61709;SDS011;47633;51.494;5.386;2022-12-18T10:46:44;7.18;;;4.43;;
61709;SDS011;47633;51.494;5.386;2022-12-18T10:54:46;8.27;;;4.88;;
61709;SDS011;47633;51.494;5.386;2022-12-18T10:57:16;7.50;;;4.25;;
61709;SDS011;47633;51.494;5.386;2022-12-18T10:59:52;8.90;;;5.13;;
61709;SDS011;47633;51.494;5.386;2022-12-18T11:02:41;7.97;;;4.57;;
61709;SDS011;47633;51.494;5.386;2022-12-18T11:05:26;9.23;;;4.20;;
61709;SDS011;47633;51.494;5.386;2022-12-18T11:07:55;9.88;;;4.70;;
61709;SDS011;47633;51.494;5.386;2022-12-18T11:10:22;7.28;;;4.15;;
61709;SDS011;47633;51.494;5.386;2022-12-18T11:12:57;6.93;;;4.20;;
61709;SDS011;47633;51.494;5.386;2022-12-18T11:15:35;6.90;;;4.10;;
61709;SDS011;47633;51.494;5.386;2022-12-18T11:18:00;9.52;;;4.70;;
61709;SDS011;47633;51.494;5.386;2022-12-18T11:20:32;7.40;;;3.97;;
61709;SDS011;47633;51.494;5.386;2022-12-18T11:23:01;11.27;;;4.88;;
61709;SDS011;47633;51.494;5.386;2022-12-18T11:25:29;10.95;;;4.63;;
61709;SDS011;47633;51.494;5.386;2022-12-18T11:27:56;12.20;;;4.55;;
61709;SDS011;47633;51.494;5.386;2022-12-18T11:32:55;9.05;;;4.50;;
61709;SDS011;47633;51.494;5.386;2022-12-18T11:38:06;8.75;;;5.18;;
61709;SDS011;47633;51.494;5.386;2022-12-18T11:40:42;6.70;;;4.30;;
61709;SDS011;47633;51.494;5.386;2022-12-18T11:43:21;6.70;;;4.05;;
61709;SDS011;47633;51.494;5.386;2022-12-18T11:45:55;7.75;;;3.95;;
61709;SDS011;47633;51.494;5.386;2022-12-18T11:48:49;9.75;;;4.13;;
61709;SDS011;47633;51.494;5.386;2022-12-18T11:51:29;10.55;;;4.45;;
61709;SDS011;47633;51.494;5.386;2022-12-18T11:54:00;9.57;;;4.25;;
61709;SDS011;47633;51.494;5.386;2022-12-18T11:56:36;6.28;;;3.83;;
61709;SDS011;47633;51.494;5.386;2022-12-18T12:08:12;9.45;;;5.20;;
61709;SDS011;47633;51.494;5.386;2022-12-18T12:10:48;10.13;;;4.57;;
61709;SDS011;47633;51.494;5.386;2022-12-18T12:13:34;10.98;;;4.68;;
61709;SDS011;47633;51.494;5.386;2022-12-18T12:16:14;7.90;;;4.25;;
61709;SDS011;47633;51.494;5.386;2022-12-18T12:18:50;9.57;;;4.32;;
61709;SDS011;47633;51.494;5.386;2022-12-18T12:21:34;11.45;;;4.20;;
61709;SDS011;47633;51.494;5.386;2022-12-18T12:29:41;9.45;;;4.97;;
61709;SDS011;47633;51.494;5.386;2022-12-18T12:32:33;8.65;;;4.45;;
61709;SDS011;47633;51.494;5.386;2022-12-18T12:38:10;10.30;;;5.78;;
61709;SDS011;47633;51.494;5.386;2022-12-18T12:40:45;8.32;;;4.78;;
61709;SDS011;47633;51.494;5.386;2022-12-18T12:43:35;9.90;;;5.07;;
61709;SDS011;47633;51.494;5.386;2022-12-18T12:46:07;10.40;;;4.50;;
61709;SDS011;47633;51.494;5.386;2022-12-18T12:48:46;8.05;;;4.72;;
61709;SDS011;47633;51.494;5.386;2022-12-18T12:51:13;8.50;;;4.65;;
61709;SDS011;47633;51.494;5.386;2022-12-18T12:53:44;9.68;;;4.35;;
61709;SDS011;47633;51.494;5.386;2022-12-18T12:56:11;8.10;;;4.55;;
61709;SDS011;47633;51.494;5.386;2022-12-18T12:58:54;8.93;;;4.57;;
61709;SDS011;47633;51.494;5.386;2022-12-18T13:01:38;8.20;;;4.57;;
61709;SDS011;47633;51.494;5.386;2022-12-18T13:15:44;11.52;;;4.70;;
61709;SDS011;47633;51.494;5.386;2022-12-18T13:23:34;9.52;;;5.10;;
61709;SDS011;47633;51.494;5.386;2022-12-18T13:30:58;9.33;;;5.03;;
61709;SDS011;47633;51.494;5.386;2022-12-18T13:35:53;9.85;;;4.93;;
61709;SDS011;47633;51.494;5.386;2022-12-18T13:38:42;10.80;;;5.07;;
61709;SDS011;47633;51.494;5.386;2022-12-18T13:46:19;8.50;;;4.87;;
61709;SDS011;47633;51.494;5.386;2022-12-18T13:51:50;7.72;;;4.43;;
61709;SDS011;47633;51.494;5.386;2022-12-18T13:56:46;7.43;;;4.75;;
61709;SDS011;47633;51.494;5.386;2022-12-18T13:59:25;10.25;;;4.63;;
61709;SDS011;47633;51.494;5.386;2022-12-18T14:01:56;9.18;;;5.30;;
61709;SDS011;47633;51.494;5.386;2022-12-18T14:04:25;8.10;;;4.63;;
61709;SDS011;47633;51.494;5.386;2022-12-18T14:06:53;8.00;;;4.85;;
61709;SDS011;47633;51.494;5.386;2022-12-18T14:09:24;9.95;;;5.28;;
61709;SDS011;47633;51.494;5.386;2022-12-18T14:11:53;7.68;;;4.40;;
61709;SDS011;47633;51.494;5.386;2022-12-18T14:14:41;8.70;;;4.72;;
61709;SDS011;47633;51.494;5.386;2022-12-18T14:17:11;7.78;;;4.15;;
61709;SDS011;47633;51.494;5.386;2022-12-18T14:19:45;8.68;;;5.00;;
61709;SDS011;47633;51.494;5.386;2022-12-18T14:22:14;8.80;;;4.97;;
61709;SDS011;47633;51.494;5.386;2022-12-18T14:24:46;7.68;;;4.40;;
61709;SDS011;47633;51.494;5.386;2022-12-18T14:27:19;9.00;;;5.18;;
61709;SDS011;47633;51.494;5.386;2022-12-18T14:29:47;8.75;;;4.88;;
61709;SDS011;47633;51.494;5.386;2022-12-18T14:32:14;8.02;;;4.45;;
61709;SDS011;47633;51.494;5.386;2022-12-18T14:34:45;10.25;;;5.13;;
61709;SDS011;47633;51.494;5.386;2022-12-18T14:37:13;10.55;;;4.90;;
61709;SDS011;47633;51.494;5.386;2022-12-18T14:42:46;8.43;;;4.90;;
61709;SDS011;47633;51.494;5.386;2022-12-18T14:48:01;9.93;;;5.10;;
61709;SDS011;47633;51.494;5.386;2022-12-18T14:50:32;11.05;;;5.15;;
61709;SDS011;47633;51.494;5.386;2022-12-18T14:52:58;12.30;;;5.68;;
61709;SDS011;47633;51.494;5.386;2022-12-18T14:55:23;10.40;;;5.30;;
61709;SDS011;47633;51.494;5.386;2022-12-18T14:57:54;9.35;;;5.57;;
61709;SDS011;47633;51.494;5.386;2022-12-18T15:00:22;9.00;;;5.10;;
61709;SDS011;47633;51.494;5.386;2022-12-18T15:02:52;9.38;;;5.05;;
61709;SDS011;47633;51.494;5.386;2022-12-18T15:05:26;9.35;;;4.63;;
61709;SDS011;47633;51.494;5.386;2022-12-18T15:07:55;6.57;;;3.92;;
61709;SDS011;47633;51.494;5.386;2022-12-18T15:10:23;8.35;;;4.78;;
61709;SDS011;47633;51.494;5.386;2022-12-18T15:18:01;10.00;;;4.50;;
61709;SDS011;47633;51.494;5.386;2022-12-18T15:20:27;6.85;;;4.13;;
61709;SDS011;47633;51.494;5.386;2022-12-18T15:22:56;9.77;;;4.80;;
61709;SDS011;47633;51.494;5.386;2022-12-18T15:25:32;8.85;;;5.15;;
61709;SDS011;47633;51.494;5.386;2022-12-18T15:28:01;12.70;;;5.43;;
61709;SDS011;47633;51.494;5.386;2022-12-18T15:30:27;9.98;;;4.70;;
61709;SDS011;47633;51.494;5.386;2022-12-18T15:33:16;17.52;;;5.70;;
61709;SDS011;47633;51.494;5.386;2022-12-18T15:35:47;7.95;;;4.40;;
61709;SDS011;47633;51.494;5.386;2022-12-18T15:38:21;7.95;;;4.55;;
61709;SDS011;47633;51.494;5.386;2022-12-18T15:40:46;8.67;;;4.47;;
61709;SDS011;47633;51.494;5.386;2022-12-18T15:43:12;9.65;;;5.13;;
61709;SDS011;47633;51.494;5.386;2022-12-18T15:45:56;10.85;;;5.40;;
61709;SDS011;47633;51.494;5.386;2022-12-18T15:48:21;8.97;;;5.03;;
61709;SDS011;47633;51.494;5.386;2022-12-18T15:50:48;8.07;;;4.90;;
61709;SDS011;47633;51.494;5.386;2022-12-18T15:53:17;9.38;;;5.65;;
61709;SDS011;47633;51.494;5.386;2022-12-18T15:55:42;8.00;;;4.75;;
61709;SDS011;47633;51.494;5.386;2022-12-18T15:58:26;7.75;;;5.15;;
61709;SDS011;47633;51.494;5.386;2022-12-18T16:00:52;7.80;;;4.78;;
61709;SDS011;47633;51.494;5.386;2022-12-18T16:03:20;7.05;;;4.38;;
61709;SDS011;47633;51.494;5.386;2022-12-18T16:05:46;9.13;;;5.10;;
61709;SDS011;47633;51.494;5.386;2022-12-18T16:08:11;9.27;;;5.10;;
61709;SDS011;47633;51.494;5.386;2022-12-18T16:10:36;8.17;;;4.80;;
61709;SDS011;47633;51.494;5.386;2022-12-18T16:13:01;8.43;;;4.97;;
61709;SDS011;47633;51.494;5.386;2022-12-18T16:15:27;8.85;;;5.07;;
61709;SDS011;47633;51.494;5.386;2022-12-18T16:17:52;9.38;;;4.82;;
61709;SDS011;47633;51.494;5.386;2022-12-18T16:20:19;9.88;;;4.57;;
61709;SDS011;47633;51.494;5.386;2022-12-18T16:22:46;9.43;;;4.88;;
61709;SDS011;47633;51.494;5.386;2022-12-18T16:25:19;9.38;;;5.05;;
61709;SDS011;47633;51.494;5.386;2022-12-18T16:27:46;8.75;;;4.68;;
61709;SDS011;47633;51.494;5.386;2022-12-18T16:30:15;8.23;;;4.10;;
61709;SDS011;47633;51.494;5.386;2022-12-18T16:32:45;9.23;;;4.78;;
61709;SDS011;47633;51.494;5.386;2022-12-18T16:35:11;8.95;;;4.57;;
61709;SDS011;47633;51.494;5.386;2022-12-18T16:37:38;6.93;;;4.22;;
61709;SDS011;47633;51.494;5.386;2022-12-18T16:40:05;6.47;;;4.07;;
61709;SDS011;47633;51.494;5.386;2022-12-18T16:42:33;9.02;;;4.72;;
61709;SDS011;47633;51.494;5.386;2022-12-18T16:45:01;10.07;;;4.50;;
61709;SDS011;47633;51.494;5.386;2022-12-18T16:47:27;7.22;;;4.07;;
61709;SDS011;47633;51.494;5.386;2022-12-18T16:49:52;7.80;;;4.47;;